Terminal Aerodrome Forecast
Issued by NWS

Home | Current Version | Previous Version | Text Only | Print | Product List | Glossary Off
Versions: 1 2 3 4 5 6 7 8 9 10 11 12 13

000
FTUS43 KTOP 012337
TAFMHK
TAF
KMHK 012337Z 0200/0224 19009KT P6SM SCT100
     FM020800 20006KT P6SM BKN100 WS020/22039KT
     FM021200 19007KT P6SM SCT100
     FM021700 19013G21KT P6SM FEW120=

USA.gov is the U.S. government's official web portal to all federal, state and local government web resources and services.